Tropical Cyclones
[Index]
Main Index Home Page Stock Weather Photos Extreme Storms Discussion Storm News and Storm Chasing Reports Tropical Cyclones / Hurricanes / Typhoons Weather Data and Links Wild Fires / Bushfires Weather Observation Techniques Weather Picture Catalogue Tornado Pictures and Reports Stock Video Footage and DVDs for sale
Season 1965-1966 Tropical Cyclone NELLIE Track Map
Season 1965-1966 Summaries: [BoM-AU] [JTWC-AU] [JTWC-SIO] [JTWC-SPAC] [JTWC-SH]
<<- Previous TC | BoM 1965-1966 Season | Next TC ->>

click for intensity scale information  Lat/long Grid: Show Hide

 Date Labels: Show Hide

Bureau of Meteorology Tropical Cyclone Data

Name: NELLIE
Number: 408 / 196566_14

21 Mar 1966 10:00 UTC to 28 Mar 1966 01:00 UTC

    date/time    lat    long    hPa   cat  kts
1966-03-21 10   10.0    97.0    997                     
1966-03-21 16   10.2    96.0    997                     
1966-03-21 19   10.5    95.1    997                     
1966-03-21 22   10.7    94.1    997                     
1966-03-22 01   11.0    93.1    997                     
1966-03-22 04   11.4    92.8    997                     
1966-03-22 07   11.8    92.4    997                     
1966-03-22 10   12.2    92.0    996                     
1966-03-22 16   12.9    91.6    996                     
1966-03-22 19   13.2    90.8    996                     
1966-03-22 22   13.2    90.5    995    1                
1966-03-23 01   13.8    90.1    995    1                
1966-03-23 04   14.0    90.0    994    1                
1966-03-23 07   14.3    89.9    993    1                
1966-03-23 10   14.6    89.8    992    1                
1966-03-23 16   15.1    89.8    991    1                
1966-03-23 19   15.4    89.8    990    1                
1966-03-23 22   15.7    90.0    989    1                
1966-03-24 01   15.9    90.0    987    1                
1966-03-24 04   16.2    90.1    987    1                
1966-03-24 07   16.5    90.3    988    1                
1966-03-24 10   16.9    90.5    988    1                
1966-03-24 16   17.6    90.6    989    1                
1966-03-24 19   18.0    90.8    989    1                
1966-03-24 22   18.4    91.0    990    1                
1966-03-25 01   18.8    91.1    990    1                
1966-03-25 04   19.0    91.4    990    1                
1966-03-25 07   19.2    91.6    990    1                
1966-03-25 10   19.5    91.8    990    1                
1966-03-25 16   20.1    92.4    990    1                
1966-03-25 19   20.4    92.6    990    1                
1966-03-25 22   20.7    92.8    990    1                
1966-03-26 01   21.0    93.0    990    1                
1966-03-26 04   21.5    93.7    991    1                
1966-03-26 07   22.0    94.5    992    1                
1966-03-26 10   22.5    95.2    993    1                
1966-03-26 16   23.5    96.7    994    1                
1966-03-26 19   24.0    97.5    995    1                
1966-03-26 22   24.5    98.2    996                     
1966-03-27 01   25.0    99.0    997                     
1966-03-27 07   26.0    99.5   1001                     
1966-03-27 10   26.5    99.7   1002                     
1966-03-27 16   27.5   100.2   1004                     
1966-03-27 19   28.0   100.5   1005                     
1966-03-27 22   28.5   100.7   1006                     
1966-03-28 01   29.0   101.0   1007                     
Winds are 10-min average.

Tropical cyclone tracks developed by Michael Bath using data from the Bureau of Meteorology and Google Maps.


[Australian Severe Weather index] [Copyright Notice] [Email Contacts] [Search This Site] [Privacy Policy]
Document: tropical_cyclone_nellie.htm Updated: 30 May 2013